Carolina Forest, South Carolina
Current Conditions -  °F | °C
As of 9:55 AM on Tuesday 21 Oct 2014 (Local Time) from KMYR Reporting Station
Clear Clear  
Wind Chill: 68°   Ceiling: Unl
Heat Index: 68°   Visibility: 10mi
Dew Point: 55°   Wind: 7mph
Humidity: 64%   Direction: 300°WNW
Pressure: 29.96"   Gusts: NA
Location:  33.7109°N, 78.9964°W
Report Text: KMYR 211355Z 30006KT 10SM CLR 20/13 A2996 RMK AO1
Loading
Personal Weather Stations






























Interactive Weather Map New forecast layout! Learn more

10-Day Weather Forecast

Advertisements
Track Severe Weather on mobile